createdAt,value
2023-05-16T00:01:37.497Z,10.88
2023-05-16T00:04:04.263Z,8.80
2023-05-16T00:06:31.598Z,8.70
2023-05-16T00:08:57.974Z,8.00
2023-05-16T00:11:24.333Z,10.05
2023-05-16T00:13:50.836Z,8.85
2023-05-16T00:16:17.308Z,9.45
2023-05-16T00:18:44.992Z,8.85
2023-05-16T00:21:11.380Z,9.73
2023-05-16T00:23:38.335Z,9.52
2023-05-16T00:26:04.840Z,9.25
2023-05-16T00:28:31.187Z,9.70
2023-05-16T00:30:57.609Z,8.32
2023-05-16T00:33:24.059Z,8.55
2023-05-16T00:35:50.950Z,9.50
2023-05-16T00:38:17.295Z,9.50
2023-05-16T00:40:44.251Z,10.18
2023-05-16T00:43:10.633Z,9.50
2023-05-16T00:45:36.965Z,10.70
2023-05-16T00:48:04.028Z,8.70
2023-05-16T00:50:30.333Z,9.05
2023-05-16T00:52:56.690Z,10.38
2023-05-16T00:55:23.253Z,10.55
2023-05-16T00:57:50.389Z,10.43
2023-05-16T01:00:19.088Z,11.15
2023-05-16T01:02:46.549Z,9.38
2023-05-16T01:05:12.998Z,10.38
2023-05-16T01:07:39.263Z,10.88
2023-05-16T01:10:06.912Z,24.20
2023-05-16T01:12:41.452Z,14.38
2023-05-16T01:15:12.160Z,12.85
2023-05-16T01:17:50.399Z,12.98
2023-05-16T01:20:28.514Z,11.20
2023-05-16T01:23:17.025Z,10.07
2023-05-16T01:25:56.630Z,11.48
2023-05-16T01:28:25.305Z,19.80
2023-05-16T01:30:51.666Z,11.05
2023-05-16T01:33:17.936Z,9.68
2023-05-16T01:35:55.414Z,13.82
2023-05-16T01:38:26.165Z,13.20
2023-05-16T01:40:58.572Z,12.27
2023-05-16T01:43:33.066Z,10.27
2023-05-16T01:46:04.306Z,10.70
2023-05-16T01:48:36.059Z,11.60
2023-05-16T01:51:03.899Z,11.15
2023-05-16T01:53:36.384Z,15.75
2023-05-16T01:56:03.573Z,12.05
2023-05-16T01:58:33.608Z,10.30
2023-05-16T02:01:02.589Z,11.05
2023-05-16T02:03:29.095Z,11.35
2023-05-16T02:05:55.407Z,10.65
2023-05-16T02:08:21.755Z,11.18
2023-05-16T02:10:48.062Z,12.80
2023-05-16T02:13:14.361Z,12.27
2023-05-16T02:15:41.276Z,11.07
2023-05-16T02:18:08.749Z,10.85
2023-05-16T02:20:35.212Z,11.25
2023-05-16T02:23:02.522Z,14.35
2023-05-16T02:25:29.149Z,12.80
2023-05-16T02:27:55.973Z,11.07
2023-05-16T02:30:22.323Z,10.48
2023-05-16T02:32:49.320Z,10.73
2023-05-16T02:35:15.698Z,14.65
2023-05-16T02:37:42.005Z,11.40
2023-05-16T02:40:09.698Z,10.50
2023-05-16T02:42:35.987Z,10.90
2023-05-16T02:45:02.518Z,9.75
2023-05-16T02:47:28.855Z,12.68
2023-05-16T02:49:55.845Z,9.60
2023-05-16T02:52:22.164Z,10.63
2023-05-16T02:55:04.142Z,14.60
2023-05-16T02:57:35.234Z,10.55
2023-05-16T03:00:01.617Z,12.32
2023-05-16T03:02:28.147Z,11.98
2023-05-16T03:04:55.152Z,11.35
2023-05-16T03:07:21.433Z,12.60
2023-05-16T03:09:47.759Z,13.77
2023-05-16T03:12:14.027Z,11.82
2023-05-16T03:14:40.320Z,11.98
2023-05-16T03:17:06.582Z,12.02
2023-05-16T03:19:32.908Z,13.63
2023-05-16T03:21:59.833Z,12.38
2023-05-16T03:24:26.138Z,13.57
2023-05-16T03:26:52.552Z,14.50
2023-05-16T03:29:18.873Z,15.52
2023-05-16T03:31:45.313Z,15.73
2023-05-16T03:34:11.904Z,13.23
2023-05-16T03:36:39.064Z,14.57
2023-05-16T03:39:07.657Z,14.88
2023-05-16T03:41:34.276Z,13.80
2023-05-16T03:44:00.513Z,16.98
2023-05-16T03:46:26.972Z,16.00
2023-05-16T03:48:53.313Z,13.43
2023-05-16T03:51:19.607Z,13.95
2023-05-16T03:53:45.879Z,15.82
2023-05-16T03:56:12.991Z,15.20
2023-05-16T03:58:39.267Z,15.95
2023-05-16T04:01:05.735Z,13.60
2023-05-16T04:03:32.906Z,14.18
2023-05-16T04:05:59.354Z,12.70
2023-05-16T04:08:26.122Z,14.63
2023-05-16T04:10:52.401Z,12.02
2023-05-16T04:13:19.377Z,13.57
2023-05-16T04:15:45.690Z,14.15
2023-05-16T04:18:12.581Z,13.82
2023-05-16T04:20:38.956Z,12.48
2023-05-16T04:23:05.275Z,12.82
2023-05-16T04:25:31.996Z,15.07
2023-05-16T04:27:58.280Z,16.13
2023-05-16T04:30:25.310Z,16.45
2023-05-16T04:32:51.651Z,17.08
2023-05-16T04:35:18.150Z,15.32
2023-05-16T04:37:44.902Z,13.50
2023-05-16T04:40:12.439Z,17.75
2023-05-16T04:42:38.942Z,14.60
2023-05-16T04:45:10.212Z,20.10
2023-05-16T04:47:37.979Z,20.75
2023-05-16T04:50:05.540Z,16.85
2023-05-16T04:52:31.919Z,16.70
2023-05-16T04:54:59.727Z,18.10
2023-05-16T04:57:26.932Z,16.75
2023-05-16T04:59:53.214Z,16.10
2023-05-16T05:02:19.622Z,20.63
2023-05-16T05:04:46.701Z,17.13
2023-05-16T05:07:13.722Z,15.45
2023-05-16T05:09:39.979Z,17.33
2023-05-16T05:12:07.354Z,19.50
2023-05-16T05:14:33.610Z,17.15
2023-05-16T05:16:59.920Z,19.27
2023-05-16T05:19:26.289Z,19.00
2023-05-16T05:21:53.291Z,18.45
2023-05-16T05:24:19.653Z,19.73
2023-05-16T05:26:46.034Z,18.27
2023-05-16T05:29:12.310Z,19.75
2023-05-16T05:31:38.626Z,22.98
2023-05-16T05:34:05.095Z,22.48
2023-05-16T05:36:31.371Z,19.90
2023-05-16T05:38:58.443Z,21.67
2023-05-16T05:41:25.572Z,20.45
2023-05-16T05:43:52.045Z,19.30
2023-05-16T05:46:18.481Z,26.10
2023-05-16T05:48:45.010Z,20.60
2023-05-16T05:51:13.420Z,25.42
2023-05-16T05:53:40.086Z,23.30
2023-05-16T05:56:07.219Z,21.02
2023-05-16T05:58:33.551Z,22.88
2023-05-16T06:00:59.968Z,22.35
2023-05-16T06:03:26.344Z,20.70
2023-05-16T06:05:52.732Z,23.88
2023-05-16T06:08:19.095Z,21.50
2023-05-16T06:10:45.707Z,23.10
2023-05-16T06:13:12.637Z,22.90
2023-05-16T06:15:38.960Z,23.23
2023-05-16T06:18:05.495Z,20.42
2023-05-16T06:20:31.858Z,22.58
2023-05-16T06:22:58.171Z,23.25
2023-05-16T06:25:24.530Z,19.35
2023-05-16T06:27:50.830Z,21.50
2023-05-16T06:30:17.923Z,21.35
2023-05-16T06:32:44.484Z,19.40
2023-05-16T06:35:10.800Z,21.73
2023-05-16T06:37:37.113Z,18.60
2023-05-16T06:40:03.972Z,21.38
2023-05-16T06:42:30.289Z,23.17
2023-05-16T06:44:56.633Z,21.75
2023-05-16T06:47:23.584Z,21.05
2023-05-16T06:49:50.382Z,23.02
2023-05-16T06:52:16.790Z,28.15
2023-05-16T06:54:43.154Z,19.25
2023-05-16T06:57:09.521Z,20.65
2023-05-16T06:59:36.098Z,22.05
2023-05-16T07:02:02.436Z,22.02
2023-05-16T07:04:29.437Z,22.27
2023-05-16T07:06:55.828Z,19.00
2023-05-16T07:09:22.145Z,23.33
2023-05-16T07:11:48.559Z,24.40
2023-05-16T07:14:14.898Z,19.13
2023-05-16T07:16:41.396Z,19.73
2023-05-16T07:19:08.009Z,19.98
2023-05-16T07:21:35.173Z,23.02
2023-05-16T07:24:01.487Z,19.98
2023-05-16T07:26:27.837Z,19.77
2023-05-16T07:28:54.581Z,19.70
2023-05-16T07:31:24.159Z,22.10
2023-05-16T07:33:50.645Z,17.48
2023-05-16T07:36:17.668Z,21.98
2023-05-16T07:38:45.112Z,22.35
2023-05-16T07:41:11.802Z,19.33
2023-05-16T07:43:38.197Z,21.80
2023-05-16T07:46:05.294Z,21.70
2023-05-16T07:48:31.794Z,29.10
2023-05-16T07:50:58.178Z,24.52
2023-05-16T07:53:24.618Z,25.42
2023-05-16T07:55:51.760Z,28.02
2023-05-16T07:58:18.139Z,27.38
2023-05-16T08:00:44.628Z,28.90
2023-05-16T08:03:11.381Z,29.30
2023-05-16T08:05:38.637Z,30.30
2023-05-16T08:08:05.467Z,31.10
2023-05-16T08:10:34.388Z,36.97
2023-05-16T08:13:01.414Z,34.80
2023-05-16T08:15:28.320Z,31.90
2023-05-16T08:17:58.098Z,30.88
2023-05-16T08:20:24.524Z,31.38
2023-05-16T08:22:53.683Z,32.08
2023-05-16T08:25:20.487Z,33.85
2023-05-16T08:27:48.513Z,28.63
2023-05-16T08:30:15.617Z,32.90
2023-05-16T08:32:41.985Z,30.55
2023-05-16T08:35:10.167Z,32.40
2023-05-16T08:37:36.482Z,32.63
2023-05-16T08:40:07.608Z,34.20
2023-05-16T08:42:34.960Z,36.20
2023-05-16T08:45:01.408Z,36.97
2023-05-16T08:47:31.264Z,35.35
2023-05-16T08:49:58.505Z,37.13
2023-05-16T08:52:29.133Z,29.40
2023-05-16T08:55:09.401Z,33.15
2023-05-16T08:57:37.475Z,35.75
2023-05-16T09:00:12.884Z,31.80
2023-05-16T09:05:10.597Z,30.30
2023-05-16T09:07:37.010Z,30.08
2023-05-16T09:10:05.066Z,29.67
2023-05-16T09:12:31.414Z,32.28
2023-05-16T09:14:58.155Z,31.92
2023-05-16T09:17:32.224Z,31.98
2023-05-16T09:20:11.161Z,38.67
2023-05-16T09:22:37.886Z,41.47
2023-05-16T09:25:06.849Z,36.72
2023-05-16T09:27:34.980Z,37.95
2023-05-16T09:30:02.070Z,33.00
2023-05-16T09:32:28.424Z,31.17
2023-05-16T09:34:57.122Z,29.45
2023-05-16T09:37:24.663Z,27.00
2023-05-16T09:39:52.384Z,25.70
2023-05-16T09:42:20.309Z,26.20
2023-05-16T09:44:48.620Z,24.63
2023-05-16T09:47:15.656Z,25.08
2023-05-16T09:49:42.133Z,27.48
2023-05-16T09:52:09.443Z,25.65
2023-05-16T09:54:36.582Z,24.10
2023-05-16T09:57:03.247Z,25.73
2023-05-16T09:59:30.109Z,26.52
2023-05-16T10:01:58.851Z,24.38
2023-05-16T10:04:25.285Z,24.15
2023-05-16T10:06:54.135Z,25.67
2023-05-16T10:09:22.073Z,23.45
2023-05-16T10:11:51.230Z,24.70
2023-05-16T10:14:18.608Z,27.38
2023-05-16T10:16:48.149Z,24.52
2023-05-16T10:19:16.083Z,25.73
2023-05-16T10:21:48.933Z,23.65
2023-05-16T10:24:19.875Z,28.20
2023-05-16T10:26:46.422Z,25.42
2023-05-16T10:29:13.970Z,27.67
2023-05-16T10:31:41.235Z,25.80
2023-05-16T10:34:07.704Z,25.63
2023-05-16T10:36:34.696Z,27.02
2023-05-16T10:39:02.254Z,26.65
2023-05-16T10:41:28.722Z,26.25
2023-05-16T10:43:58.935Z,27.08
2023-05-16T10:46:28.333Z,26.90
2023-05-16T10:48:56.529Z,27.45
2023-05-16T10:51:34.641Z,28.23
2023-05-16T10:54:06.110Z,28.55
2023-05-16T10:56:32.969Z,31.25
2023-05-16T10:58:59.298Z,30.67
2023-05-16T11:01:28.802Z,30.98
2023-05-16T11:04:16.475Z,33.85
2023-05-16T11:06:50.362Z,30.70
2023-05-16T11:09:22.696Z,31.90
2023-05-16T11:11:59.003Z,37.28
2023-05-16T11:14:28.066Z,36.72
2023-05-16T11:17:01.504Z,39.47
2023-05-16T11:19:33.712Z,41.90
2023-05-16T11:22:07.582Z,42.58
2023-05-16T11:24:35.584Z,44.33
2023-05-16T11:27:03.122Z,47.70
2023-05-16T11:29:31.615Z,46.30
2023-05-16T11:31:59.357Z,45.40
2023-05-16T11:34:25.783Z,41.17
2023-05-16T11:36:52.449Z,39.85
2023-05-16T11:39:19.306Z,38.55
2023-05-16T11:41:47.809Z,37.65
2023-05-16T11:44:15.428Z,41.00
2023-05-16T11:46:42.074Z,48.47
2023-05-16T11:49:09.892Z,41.75
2023-05-16T11:51:37.974Z,40.75
2023-05-16T11:54:04.764Z,39.08
2023-05-16T11:56:31.507Z,36.03
2023-05-16T11:58:58.727Z,32.67
2023-05-16T12:01:25.551Z,29.15
2023-05-16T12:03:58.346Z,29.75
2023-05-16T12:06:25.921Z,29.00
2023-05-16T12:08:52.844Z,31.10
2023-05-16T12:11:21.035Z,32.78
2023-05-16T12:13:50.151Z,32.75
2023-05-16T12:16:16.738Z,32.35
2023-05-16T12:18:43.912Z,24.48
2023-05-16T12:21:10.443Z,25.05
2023-05-16T12:23:37.453Z,21.85
2023-05-16T12:26:07.278Z,22.63
2023-05-16T12:28:34.908Z,24.35
2023-05-16T12:31:01.308Z,24.33
2023-05-16T12:33:27.790Z,23.33
2023-05-16T12:35:54.381Z,24.40
2023-05-16T12:38:20.905Z,24.83
2023-05-16T12:40:47.914Z,25.17
2023-05-16T12:43:14.896Z,25.05
2023-05-16T12:45:41.560Z,24.17
2023-05-16T12:48:12.576Z,24.50
2023-05-16T12:50:39.641Z,23.45
2023-05-16T12:53:12.086Z,26.30
2023-05-16T12:55:38.490Z,23.70
2023-05-16T12:58:05.875Z,23.25
2023-05-16T13:00:32.277Z,24.33
2023-05-16T13:02:58.801Z,25.15
2023-05-16T13:05:25.438Z,23.85
2023-05-16T13:07:52.046Z,26.08
2023-05-16T13:10:18.678Z,28.30
2023-05-16T13:12:45.403Z,28.48
2023-05-16T13:15:12.455Z,28.45
2023-05-16T13:17:40.079Z,28.77
2023-05-16T13:20:09.225Z,28.85
2023-05-16T13:22:35.834Z,28.10
2023-05-16T13:25:03.837Z,29.52
2023-05-16T13:27:30.459Z,27.02
2023-05-16T13:29:57.627Z,27.50
2023-05-16T13:32:24.962Z,27.70
2023-05-16T13:34:51.635Z,27.75
2023-05-16T13:37:18.073Z,27.38
2023-05-16T13:39:44.476Z,30.45
2023-05-16T13:42:11.099Z,29.02
2023-05-16T13:44:37.714Z,33.17
2023-05-16T13:47:04.230Z,24.48
2023-05-16T13:49:31.221Z,20.48
2023-05-16T13:51:57.866Z,21.40
2023-05-16T13:54:24.657Z,19.30
2023-05-16T13:56:51.010Z,17.15
2023-05-16T13:59:32.011Z,14.25
2023-05-16T14:02:04.190Z,13.60
2023-05-16T14:04:31.343Z,13.43
2023-05-16T14:06:57.680Z,14.85
2023-05-16T14:09:24.034Z,13.70
2023-05-16T14:11:50.388Z,15.38
2023-05-16T14:14:16.744Z,13.23
2023-05-16T14:16:45.154Z,13.45
2023-05-16T14:19:12.011Z,13.00
2023-05-16T14:21:39.506Z,17.08
2023-05-16T14:24:07.015Z,14.65
2023-05-16T14:26:33.405Z,14.57
2023-05-16T14:29:00.003Z,14.82
2023-05-16T14:31:26.405Z,14.77
2023-05-16T14:33:52.780Z,17.08
2023-05-16T14:36:19.116Z,17.17
2023-05-16T14:38:46.134Z,15.60
2023-05-16T14:41:12.608Z,15.68
2023-05-16T14:43:38.999Z,18.00
2023-05-16T14:46:05.351Z,16.42
2023-05-16T14:48:32.692Z,16.77
2023-05-16T14:50:59.214Z,16.38
2023-05-16T14:53:25.913Z,17.70
2023-05-16T14:55:52.969Z,17.33
2023-05-16T14:58:19.342Z,17.50
2023-05-16T15:00:45.671Z,18.00
2023-05-16T15:03:13.185Z,18.63
2023-05-16T15:05:41.494Z,18.52
2023-05-16T15:08:07.828Z,20.38
2023-05-16T15:10:34.162Z,22.05
2023-05-16T15:13:01.185Z,19.90
2023-05-16T15:15:28.050Z,20.02
2023-05-16T15:17:54.508Z,20.77
2023-05-16T15:20:22.633Z,20.92
2023-05-16T15:22:49.211Z,19.88
2023-05-16T15:25:15.589Z,19.02
2023-05-16T15:27:42.963Z,22.42
2023-05-16T15:30:11.539Z,19.17
2023-05-16T15:32:38.103Z,21.98
2023-05-16T15:35:05.434Z,19.00
2023-05-16T15:37:31.955Z,22.33
2023-05-16T15:39:58.311Z,24.48
2023-05-16T15:42:24.666Z,21.17
2023-05-16T15:44:51.223Z,21.88
2023-05-16T15:47:18.268Z,23.55
2023-05-16T15:49:44.907Z,21.35
2023-05-16T15:52:11.293Z,24.85
2023-05-16T15:54:37.661Z,24.05
2023-05-16T15:57:04.341Z,23.73
2023-05-16T15:59:30.750Z,24.98
2023-05-16T16:01:57.148Z,26.38
2023-05-16T16:04:24.140Z,22.92
2023-05-16T16:06:50.571Z,24.45
2023-05-16T16:09:17.207Z,23.95
2023-05-16T16:11:43.579Z,25.05
2023-05-16T16:14:10.421Z,25.92
2023-05-16T16:16:38.804Z,24.83
2023-05-16T16:19:05.289Z,21.80
2023-05-16T16:21:32.712Z,23.98
2023-05-16T16:23:59.153Z,23.95
2023-05-16T16:26:25.808Z,23.83
2023-05-16T16:28:52.147Z,26.63
2023-05-16T16:31:18.647Z,25.25
2023-05-16T16:33:48.257Z,25.02
2023-05-16T16:36:15.161Z,27.08
2023-05-16T16:38:42.231Z,30.08
2023-05-16T16:41:09.307Z,28.15
2023-05-16T16:43:36.451Z,29.17
2023-05-16T16:46:02.869Z,29.33
2023-05-16T16:48:29.233Z,30.15
2023-05-16T16:50:56.034Z,30.65
2023-05-16T16:53:22.376Z,32.75
2023-05-16T16:55:49.348Z,34.05
2023-05-16T16:58:15.779Z,37.10
2023-05-16T17:00:42.092Z,40.47
2023-05-16T17:03:08.526Z,38.13
2023-05-16T17:05:35.019Z,34.03
2023-05-16T17:08:01.419Z,40.50
2023-05-16T17:10:28.030Z,36.28
2023-05-16T17:12:55.197Z,36.85
2023-05-16T17:15:21.630Z,38.03
2023-05-16T17:17:48.421Z,40.88
2023-05-16T17:20:14.761Z,42.92
2023-05-16T17:22:41.303Z,40.95
2023-05-16T17:25:09.077Z,42.72
2023-05-16T17:27:35.415Z,44.15
2023-05-16T17:30:03.950Z,44.22
2023-05-16T17:32:30.292Z,42.25
2023-05-16T17:34:56.851Z,54.95
2023-05-16T17:37:23.170Z,41.78
2023-05-16T17:39:49.648Z,45.55
2023-05-16T17:42:16.003Z,45.08
2023-05-16T17:44:42.933Z,46.80
2023-05-16T17:47:10.642Z,43.58
2023-05-16T17:49:37.011Z,43.25
2023-05-16T17:52:03.802Z,50.00
2023-05-16T17:54:31.338Z,47.92
2023-05-16T17:56:57.831Z,45.78
2023-05-16T17:59:26.574Z,44.67
2023-05-16T18:01:53.090Z,43.38
2023-05-16T18:04:21.754Z,42.90
2023-05-16T18:06:48.861Z,41.35
2023-05-16T18:09:15.202Z,40.65
2023-05-16T18:11:41.886Z,44.30
2023-05-16T18:14:08.585Z,41.90
2023-05-16T18:16:35.317Z,42.75
2023-05-16T18:19:04.069Z,43.33
2023-05-16T18:21:31.288Z,42.45
2023-05-16T18:23:59.319Z,39.95
2023-05-16T18:26:27.733Z,45.55
2023-05-16T18:28:54.082Z,42.60
2023-05-16T18:31:20.574Z,42.35
2023-05-16T18:33:47.106Z,40.78
2023-05-16T18:36:13.477Z,39.78
2023-05-16T18:38:40.605Z,42.22
2023-05-16T18:41:07.121Z,44.22
2023-05-16T18:43:34.626Z,46.85
2023-05-16T18:46:00.936Z,44.17
2023-05-16T18:48:27.335Z,49.55
2023-05-16T18:50:53.753Z,45.50
2023-05-16T18:53:20.157Z,45.55
2023-05-16T18:55:47.827Z,41.70
2023-05-16T18:58:14.285Z,42.92
2023-05-16T19:00:40.678Z,42.05
2023-05-16T19:03:08.974Z,42.35
2023-05-16T19:05:35.678Z,42.08
2023-05-16T19:08:02.077Z,43.72
2023-05-16T19:10:28.605Z,40.03
2023-05-16T19:12:56.061Z,37.28
2023-05-16T19:15:22.479Z,34.28
2023-05-16T19:17:48.869Z,28.20
2023-05-16T19:20:15.260Z,32.97
2023-05-16T19:22:41.717Z,31.60
2023-05-16T19:25:08.954Z,28.08
2023-05-16T19:27:35.376Z,27.92
2023-05-16T19:30:02.628Z,28.52
2023-05-16T19:32:29.623Z,32.70
2023-05-16T19:34:56.234Z,27.67
2023-05-16T19:37:22.771Z,25.75
2023-05-16T19:39:49.146Z,27.38
2023-05-16T19:42:15.507Z,26.02
2023-05-16T19:44:42.256Z,29.60
2023-05-16T19:47:09.350Z,25.17
2023-05-16T19:49:35.810Z,26.92
2023-05-16T19:52:03.995Z,25.02
2023-05-16T19:54:33.289Z,30.08
2023-05-16T19:56:59.797Z,24.38
2023-05-16T19:59:26.406Z,25.00
2023-05-16T20:01:52.985Z,27.85
2023-05-16T20:04:20.058Z,24.17
2023-05-16T20:06:46.555Z,22.25
2023-05-16T20:09:12.919Z,26.67
2023-05-16T20:11:39.292Z,24.23
2023-05-16T20:14:05.755Z,23.40
2023-05-16T20:16:32.198Z,24.17
2023-05-16T20:18:58.655Z,19.85
2023-05-16T20:21:25.782Z,20.13
2023-05-16T20:23:52.244Z,21.63
2023-05-16T20:26:18.666Z,19.40
2023-05-16T20:28:45.195Z,18.83
2023-05-16T20:31:11.554Z,21.15
2023-05-16T20:33:38.048Z,19.80
2023-05-16T20:36:04.723Z,18.60
2023-05-16T20:38:31.759Z,18.40
2023-05-16T20:40:58.848Z,18.88
2023-05-16T20:43:26.751Z,18.75
2023-05-16T20:45:53.294Z,19.45
2023-05-16T20:48:22.965Z,17.70
2023-05-16T20:50:49.367Z,18.60
2023-05-16T20:53:15.819Z,18.88
2023-05-16T20:55:42.842Z,18.33
2023-05-16T20:58:09.220Z,20.83
2023-05-16T21:00:35.552Z,18.17
2023-05-16T21:03:01.972Z,21.20
2023-05-16T21:05:28.427Z,16.42
2023-05-16T21:07:54.824Z,18.63
2023-05-16T21:10:21.234Z,19.45
2023-05-16T21:12:49.391Z,18.98
2023-05-16T21:15:15.752Z,15.07
2023-05-16T21:17:42.890Z,16.35
2023-05-16T21:20:09.930Z,18.55
2023-05-16T21:22:36.333Z,18.10
2023-05-16T21:25:02.899Z,16.25
2023-05-16T21:27:29.268Z,14.88
2023-05-16T21:29:56.279Z,15.00
2023-05-16T21:32:22.665Z,12.05
2023-05-16T21:34:48.963Z,15.63
2023-05-16T21:37:16.145Z,13.40
2023-05-16T21:39:42.506Z,15.05
2023-05-16T21:42:08.852Z,16.67
2023-05-16T21:44:35.224Z,13.25
2023-05-16T21:47:02.210Z,11.80
2023-05-16T21:49:28.577Z,11.85
2023-05-16T21:51:54.963Z,16.23
2023-05-16T21:54:21.358Z,11.70
2023-05-16T21:56:47.729Z,12.32
2023-05-16T21:59:14.097Z,10.98
2023-05-16T22:01:40.476Z,10.48
2023-05-16T22:04:07.689Z,11.27
2023-05-16T22:06:34.187Z,11.13
2023-05-16T22:09:01.173Z,10.15
2023-05-16T22:11:27.764Z,10.18
2023-05-16T22:13:54.153Z,12.45
2023-05-16T22:16:20.501Z,9.57
2023-05-16T22:18:47.065Z,14.35
2023-05-16T22:21:15.430Z,13.52
2023-05-16T22:23:41.799Z,14.40
2023-05-16T22:26:08.197Z,10.48
2023-05-16T22:28:34.546Z,8.18
2023-05-16T22:31:00.869Z,12.50
2023-05-16T22:33:27.333Z,13.57
2023-05-16T22:35:54.043Z,10.32
2023-05-16T22:38:21.148Z,10.10
2023-05-16T22:40:47.492Z,10.10
2023-05-16T22:43:13.853Z,8.27
2023-05-16T22:45:40.258Z,10.35
2023-05-16T22:48:06.747Z,8.63
2023-05-16T22:50:33.232Z,10.30
2023-05-16T23:00:28.168Z,9.80
2023-05-16T23:02:54.638Z,11.77
2023-05-16T23:05:21.086Z,12.25
2023-05-16T23:07:47.455Z,10.98
2023-05-16T23:10:13.862Z,11.95
2023-05-16T23:12:40.200Z,14.82
2023-05-16T23:15:09.404Z,11.40
2023-05-16T23:17:36.763Z,6.25
2023-05-16T23:20:03.948Z,8.35
2023-05-16T23:22:30.391Z,9.80
2023-05-16T23:24:56.698Z,10.70
2023-05-16T23:27:23.151Z,10.38
2023-05-16T23:29:49.457Z,7.72
2023-05-16T23:32:16.550Z,9.18
2023-05-16T23:34:42.876Z,11.65
2023-05-16T23:37:09.252Z,8.10
2023-05-16T23:39:35.581Z,10.05
2023-05-16T23:42:01.906Z,11.60
2023-05-16T23:44:28.369Z,12.30
2023-05-16T23:46:54.720Z,16.45
2023-05-16T23:49:21.699Z,8.73
2023-05-16T23:51:57.474Z,12.18
2023-05-16T23:54:24.761Z,12.57
2023-05-16T23:56:51.293Z,11.60
2023-05-16T23:59:18.546Z,12.60
